createdAt,value
2023-01-29T00:03:15.707Z,-63
2023-01-29T00:08:17.033Z,-63
2023-01-29T00:13:18.276Z,-62
2023-01-29T00:18:19.457Z,-63
2023-01-29T00:23:20.648Z,-63
2023-01-29T00:28:24.003Z,-66
2023-01-29T00:33:25.237Z,-62
2023-01-29T00:38:26.525Z,-63
2023-01-29T00:43:46.185Z,-62
2023-01-29T00:48:50.095Z,-62
2023-01-29T00:53:51.335Z,-63
2023-01-29T00:58:52.547Z,-62
2023-01-29T01:03:53.742Z,-62
2023-01-29T01:09:13.483Z,-62
2023-01-29T01:14:14.650Z,-62
2023-01-29T01:19:15.936Z,-62
2023-01-29T01:24:17.234Z,-62
2023-01-29T01:29:18.499Z,-62
2023-01-29T01:34:19.978Z,-62
2023-01-29T01:39:21.256Z,-62
2023-01-29T01:44:22.476Z,-62
2023-01-29T01:49:24.732Z,-62
2023-01-29T01:54:25.958Z,-62
2023-01-29T01:59:27.221Z,-62
2023-01-29T02:04:46.888Z,-62
2023-01-29T02:09:48.180Z,-62
2023-01-29T02:14:49.362Z,-62
2023-01-29T02:19:50.513Z,-62
2023-01-29T02:24:51.750Z,-63
2023-01-29T02:29:52.967Z,-62
2023-01-29T02:35:12.690Z,-62
2023-01-29T02:40:14.060Z,-62
2023-01-29T02:45:15.388Z,-62
2023-01-29T02:50:16.935Z,-62
2023-01-29T02:55:18.395Z,-62
2023-01-29T03:00:19.696Z,-62
2023-01-29T03:05:21.010Z,-62
2023-01-29T03:10:22.257Z,-62
2023-01-29T03:15:25.241Z,-62
2023-01-29T03:20:26.564Z,-62
2023-01-29T03:25:46.600Z,-62
2023-01-29T03:31:06.452Z,-63
2023-01-29T03:36:07.693Z,-62
2023-01-29T03:41:08.978Z,-62
2023-01-29T03:46:10.360Z,-62
2023-01-29T03:51:12.063Z,-62
2023-01-29T03:56:13.269Z,-62
2023-01-29T04:01:14.465Z,-62
2023-01-29T04:06:15.721Z,-62
2023-01-29T04:11:16.984Z,-62
2023-01-29T04:16:18.294Z,-62
2023-01-29T04:21:19.534Z,-63
2023-01-29T04:26:21.752Z,-62
2023-01-29T04:31:23.075Z,-62
2023-01-29T04:36:24.392Z,-63
2023-01-29T04:41:25.628Z,-62
2023-01-29T04:46:26.837Z,-62
2023-01-29T04:51:27.993Z,-62
2023-01-29T04:56:29.489Z,-62
2023-01-29T05:01:30.669Z,-62
2023-01-29T05:06:31.898Z,-62
2023-01-29T05:11:33.436Z,-63
2023-01-29T05:16:42.099Z,-62
2023-01-29T05:21:43.350Z,-62
2023-01-29T05:27:03.061Z,-62
2023-01-29T05:32:04.283Z,-62
2023-01-29T05:37:05.560Z,-62
2023-01-29T05:42:07.109Z,-62
2023-01-29T05:47:08.303Z,-62
2023-01-29T05:52:09.686Z,-62
2023-01-29T05:57:10.893Z,-62
2023-01-29T06:02:12.188Z,-62
2023-01-29T06:07:13.502Z,-62
2023-01-29T06:12:14.720Z,-62
2023-01-29T06:17:15.878Z,-63
2023-01-29T06:22:17.077Z,-62
2023-01-29T06:27:18.358Z,-62
2023-01-29T06:32:19.678Z,-62
2023-01-29T06:37:20.885Z,-62
2023-01-29T06:42:27.685Z,-62
2023-01-29T06:47:28.983Z,-63
2023-01-29T06:52:30.210Z,-62
2023-01-29T06:57:31.497Z,-62
2023-01-29T07:02:32.791Z,-63
2023-01-29T07:07:34.004Z,-62
2023-01-29T07:12:35.263Z,-63
2023-01-29T07:17:36.434Z,-62
2023-01-29T07:22:37.759Z,-62
2023-01-29T07:27:38.976Z,-63
2023-01-29T07:32:40.236Z,-63
2023-01-29T07:37:41.496Z,-62
2023-01-29T07:42:43.967Z,-63
2023-01-29T07:47:45.129Z,-62
2023-01-29T07:52:46.343Z,-63
2023-01-29T07:57:47.544Z,-62
2023-01-29T08:02:48.751Z,-62
2023-01-29T08:08:04.473Z,-63
2023-01-29T08:13:07.519Z,-63
2023-01-29T08:18:09.754Z,-62
2023-01-29T08:23:11.050Z,-63
2023-01-29T08:28:12.420Z,-63
2023-01-29T08:33:13.785Z,-63
2023-01-29T08:38:15.024Z,-63
2023-01-29T08:43:16.193Z,-63
2023-01-29T08:48:17.446Z,-63
2023-01-29T08:53:24.216Z,-63
2023-01-29T08:58:25.377Z,-63
2023-01-29T09:03:26.558Z,-63
2023-01-29T09:08:28.090Z,-63
2023-01-29T09:13:29.328Z,-63
2023-01-29T09:18:30.547Z,-63
2023-01-29T09:23:31.748Z,-63
2023-01-29T09:28:32.946Z,-63
2023-01-29T09:33:34.319Z,-63
2023-01-29T09:38:36.684Z,-63
2023-01-29T09:43:37.865Z,-64
2023-01-29T09:48:39.104Z,-63
2023-01-29T09:53:40.306Z,-63
2023-01-29T09:58:41.696Z,-63
2023-01-29T10:03:42.909Z,-66
2023-01-29T10:08:44.145Z,-66
2023-01-29T10:13:45.520Z,-66
2023-01-29T10:18:46.749Z,-66
2023-01-29T10:23:47.938Z,-66
2023-01-29T10:28:50.118Z,-66
2023-01-29T10:34:01.371Z,-66
2023-01-29T10:39:03.079Z,-65
2023-01-29T10:44:04.237Z,-68
2023-01-29T10:49:05.414Z,-68
2023-01-29T10:54:06.639Z,-66
2023-01-29T10:59:07.866Z,-65
2023-01-29T11:04:09.049Z,-64
2023-01-29T11:09:10.295Z,-67
2023-01-29T11:14:11.521Z,-65
2023-01-29T11:19:12.724Z,-64
2023-01-29T11:24:16.752Z,-65
2023-01-29T11:29:17.917Z,-64
2023-01-29T11:34:19.305Z,-66
2023-01-29T11:39:20.789Z,-68
2023-01-29T11:44:22.120Z,-70
2023-01-29T11:49:23.399Z,-66
2023-01-29T11:54:24.582Z,-64
2023-01-29T11:59:25.758Z,-63
2023-01-29T12:04:26.927Z,-63
2023-01-29T12:09:28.322Z,-64
2023-01-29T12:14:35.974Z,-64
2023-01-29T12:19:37.269Z,-64
2023-01-29T12:24:38.427Z,-64
2023-01-29T12:29:39.793Z,-64
2023-01-29T12:34:43.408Z,-64
2023-01-29T12:39:44.662Z,-64
2023-01-29T12:44:45.962Z,-65
2023-01-29T12:49:47.132Z,-63
2023-01-29T12:54:48.387Z,-63
2023-01-29T12:59:49.717Z,-63
2023-01-29T13:04:50.877Z,-64
2023-01-29T13:09:52.097Z,-63
2023-01-29T13:14:53.321Z,-63
2023-01-29T13:19:54.493Z,-64
2023-01-29T13:25:04.540Z,-63
2023-01-29T13:30:06.623Z,-64
2023-01-29T13:35:07.835Z,-65
2023-01-29T13:40:09.025Z,-63
2023-01-29T13:45:10.315Z,-63
2023-01-29T13:50:11.510Z,-63
2023-01-29T13:55:12.948Z,-63
2023-01-29T14:00:14.176Z,-65
2023-01-29T14:05:15.644Z,-64
2023-01-29T14:10:17.052Z,-63
2023-01-29T14:15:21.174Z,-64
2023-01-29T14:20:24.236Z,-63
2023-01-29T14:25:26.825Z,-63
2023-01-29T14:30:28.103Z,-65
2023-01-29T14:35:30.536Z,-66
2023-01-29T14:40:31.717Z,-63
2023-01-29T14:45:33.284Z,-64
2023-01-29T14:50:37.871Z,-64
2023-01-29T14:55:39.131Z,-67
2023-01-29T15:00:40.344Z,-65
2023-01-29T15:05:41.525Z,-65
2023-01-29T15:10:42.694Z,-64
2023-01-29T15:15:43.878Z,-64
2023-01-29T15:20:45.120Z,-64
2023-01-29T15:25:46.356Z,-64
2023-01-29T15:30:47.585Z,-64
2023-01-29T15:35:51.628Z,-64
2023-01-29T15:40:55.079Z,-64
2023-01-29T15:45:56.269Z,-64
2023-01-29T15:50:57.489Z,-62
2023-01-29T15:56:00.012Z,-63
2023-01-29T16:01:01.260Z,-63
2023-01-29T16:06:02.679Z,-62
2023-01-29T16:11:03.921Z,-64
2023-01-29T16:16:05.255Z,-64
2023-01-29T16:21:06.603Z,-64
2023-01-29T16:26:07.804Z,-63
2023-01-29T16:31:09.183Z,-64
2023-01-29T16:36:11.604Z,-63
2023-01-29T16:41:12.838Z,-64
2023-01-29T16:46:14.078Z,-64
2023-01-29T16:51:15.379Z,-64
2023-01-29T16:56:16.571Z,-64
2023-01-29T17:01:17.769Z,-64
2023-01-29T17:06:19.006Z,-64
2023-01-29T17:11:20.201Z,-64
2023-01-29T17:16:21.487Z,-64
2023-01-29T17:21:22.805Z,-64
2023-01-29T17:26:24.928Z,-64
2023-01-29T17:31:26.304Z,-64
2023-01-29T17:36:27.519Z,-64
2023-01-29T17:41:28.786Z,-65
2023-01-29T17:46:30.047Z,-64
2023-01-29T17:51:31.275Z,-65
2023-01-29T17:56:32.548Z,-65
2023-01-29T18:01:33.792Z,-64
2023-01-29T18:06:34.973Z,-64
2023-01-29T18:11:36.324Z,-64
2023-01-29T18:16:37.936Z,-64
2023-01-29T18:21:39.517Z,-64
2023-01-29T18:26:40.710Z,-64
2023-01-29T18:31:42.010Z,-64
2023-01-29T18:36:46.923Z,-64
2023-01-29T18:41:48.126Z,-64
2023-01-29T18:46:49.550Z,-64
2023-01-29T18:51:50.752Z,-64
2023-01-29T18:57:14.028Z,-64
2023-01-29T19:02:13.281Z,-64
2023-01-29T19:07:14.525Z,-64
2023-01-29T19:12:15.747Z,-64
2023-01-29T19:17:16.965Z,-64
2023-01-29T19:22:18.154Z,-64
2023-01-29T19:27:19.312Z,-64
2023-01-29T19:32:20.614Z,-64
2023-01-29T19:37:21.811Z,-64
2023-01-29T19:42:23.009Z,-64
2023-01-29T19:47:24.313Z,-63
2023-01-29T19:52:51.074Z,-63
2023-01-29T19:57:53.295Z,-63
2023-01-29T20:02:54.506Z,-63
2023-01-29T20:07:55.706Z,-64
2023-01-29T20:12:57.057Z,-72
2023-01-29T20:17:59.040Z,-64
2023-01-29T20:23:01.425Z,-64
2023-01-29T20:28:02.671Z,-64
2023-01-29T20:33:03.919Z,-64
2023-01-29T20:38:05.166Z,-64
2023-01-29T20:43:06.435Z,-64
2023-01-29T20:48:08.009Z,-64
2023-01-29T20:53:09.236Z,-64
2023-01-29T20:58:10.672Z,-64
2023-01-29T21:03:11.952Z,-64
2023-01-29T21:08:13.163Z,-64
2023-01-29T21:13:14.381Z,-67
2023-01-29T21:18:15.580Z,-64
2023-01-29T21:23:16.832Z,-64
2023-01-29T21:28:18.013Z,-64
2023-01-29T21:33:19.209Z,-64
2023-01-29T21:38:20.433Z,-64
2023-01-29T21:43:21.647Z,-64
2023-01-29T21:48:22.805Z,-64
2023-01-29T21:53:24.123Z,-65
2023-01-29T21:58:25.299Z,-65
2023-01-29T22:03:26.529Z,-64
2023-01-29T22:08:27.911Z,-68
2023-01-29T22:13:29.204Z,-64
2023-01-29T22:18:30.510Z,-65
2023-01-29T22:23:31.795Z,-66
2023-01-29T22:28:32.975Z,-66
2023-01-29T22:33:34.253Z,-66
2023-01-29T22:38:35.541Z,-66
2023-01-29T22:43:36.744Z,-65
2023-01-29T22:48:38.164Z,-65
2023-01-29T22:53:39.409Z,-65
2023-01-29T22:58:41.185Z,-65
2023-01-29T23:03:42.511Z,-65
2023-01-29T23:08:43.752Z,-65
2023-01-29T23:13:44.937Z,-65
2023-01-29T23:18:46.124Z,-65
2023-01-29T23:23:47.322Z,-65
2023-01-29T23:28:48.596Z,-65
2023-01-29T23:33:50.424Z,-65
2023-01-29T23:38:51.648Z,-65
2023-01-29T23:43:53.123Z,-65
2023-01-29T23:48:54.422Z,-65
2023-01-29T23:53:55.698Z,-65
2023-01-29T23:58:56.906Z,-65
